KAST

Astoria Regional Airport

Astoria, Oregon, USA
METAR KAST 181955Z AUTO 00000KT 10SM OVC022 10/08 A3016 RMK AO2 SLP214 T01000083
Observed Flight Rules
Dec-18 @ 19:55 UTC (18 minutes ago) Marginal Visual Flight Rules
Wind Visibility Clouds
Calm 10 miles
  • Overcast at 2,200' AGL
Temperatures Readings
Current 10°C / 50°F
Dewpoint 8°C / 46°F
Humidity 88%
Altimeter 30.16" Hg
Pressure 1021.4 hPa
Elevation 3
METAR KAST 181955Z AUTO 00000KT 10SM OVC022 10/08 A3016 RMK AO2 SLP214 T01000083
Observed Flight Rules
Dec-18 @ 19:55 UTC
(18 minutes ago)
MVFR
Wind Visibility
Calm 10 miles
Clouds
  • Overcast at 2,200' AGL
Temperature Dewpoint
10°C / 50°F 8°C / 46°F
Humidity Altimeter Pressure
88% 30.16" Hg 1021.4 hPa